Roann, Indiana
Current Conditions -  °F | °C
As of 8:55 AM on Friday 31 Oct 2014 (Local Time) from KRCR Reporting Station
Moderate Rain Moderate Rain  
Wind Chill: 34°   Ceiling: 1500
Heat Index: 41°   Visibility: 10mi
Dew Point: 37°   Wind: 13mph
Humidity: 87%   Direction: 320°NW
Pressure: 30"   Gusts: NA
Location:  40.91°N, 85.92°W
Report Text: KRCR 311255Z AUTO 32011KT 10SM RA BKN015 05/03 A3000 RMK AO2 P0001
Loading
Personal Weather Stations






























Interactive Weather Map
Tropical Storm Tracking
New forecast layout! Learn more

10-Day Weather Forecast

Advertisements
Track Severe Weather on mobile